Time;durP1;ratioP1;P1;durP2;ratioP2;P2;SDS_P1;SDS_P2;PMS_P1;PMS_P2;Temp;Humidity;BMP_temperature;BMP_pressure;BME280_temperature;BME280_humidity;BME280_pressure;Samples;Min_cycle;Max_cycle;Signal;HPM_P1;HPM_P2
2022/07/30 00:02:22;;;;;;;7.10;6.40;;;20.20;99.90;;;;;;4988834;28;20194;-84
2022/07/30 00:04:47;;;;;;;8.43;6.30;;;20.10;99.90;;;;;;4970913;28;20194;-82
2022/07/30 00:07:14;;;;;;;12.43;6.60;;;20.00;99.90;;;;;;4986303;28;20748;-84
2022/07/30 00:09:40;;;;;;;13.17;6.40;;;20.00;99.90;;;;;;4984532;28;20226;-84
2022/07/30 00:12:06;;;;;;;10.80;6.03;;;20.00;99.90;;;;;;4970836;28;21008;-84
2022/07/30 00:14:33;;;;;;;8.70;6.30;;;19.90;99.90;;;;;;4989542;28;20192;-84
2022/07/30 00:16:59;;;;;;;7.90;6.63;;;19.90;99.90;;;;;;4988068;28;20528;-85
2022/07/30 00:19:25;;;;;;;9.87;6.23;;;19.80;99.90;;;;;;4985525;28;20460;-84
2022/07/30 00:21:51;;;;;;;9.10;6.40;;;19.80;99.90;;;;;;4986440;28;20438;-84
2022/07/30 00:24:16;;;;;;;9.00;6.77;;;19.70;99.90;;;;;;4987567;28;20241;-83
2022/07/30 00:26:42;;;;;;;9.00;7.10;;;19.70;99.90;;;;;;4985657;28;20232;-84
2022/07/30 00:29:07;;;;;;;10.63;6.17;;;19.70;99.90;;;;;;4986365;28;20218;-84
2022/07/30 00:31:33;;;;;;;7.40;6.33;;;19.60;99.90;;;;;;4968542;28;20751;-82
2022/07/30 00:33:59;;;;;;;7.93;6.60;;;19.60;99.90;;;;;;4967579;28;20725;-83
2022/07/30 00:36:24;;;;;;;7.83;6.60;;;19.50;99.90;;;;;;4972984;28;20191;-84
2022/07/30 00:38:50;;;;;;;7.57;6.80;;;19.50;99.90;;;;;;5010979;22;20229;-82
2022/07/30 00:41:15;;;;;;;10.03;6.63;;;19.40;99.90;;;;;;5004814;28;20186;-82
2022/07/30 00:43:41;;;;;;;8.33;7.00;;;19.40;99.90;;;;;;4978113;28;20205;-82
2022/07/30 00:46:07;;;;;;;8.00;7.20;;;19.40;99.90;;;;;;4989033;28;20185;-82
2022/07/30 00:48:32;;;;;;;8.37;7.10;;;19.30;99.90;;;;;;5008225;28;20200;-82
2022/07/30 00:50:58;;;;;;;8.57;7.30;;;19.30;99.90;;;;;;4970857;28;20216;-82
2022/07/30 00:53:24;;;;;;;11.77;7.60;;;19.20;99.90;;;;;;4989937;28;20550;-82
2022/07/30 00:55:49;;;;;;;9.30;7.33;;;19.20;99.90;;;;;;4973765;28;20184;-82
2022/07/30 00:58:15;;;;;;;9.23;7.00;;;19.10;99.90;;;;;;4982852;28;20185;-82
2022/07/30 01:00:40;;;;;;;8.50;7.27;;;19.10;99.90;;;;;;4971503;28;20210;-82
2022/07/30 01:03:06;;;;;;;12.40;7.97;;;19.10;99.90;;;;;;4983958;28;20271;-82
2022/07/30 01:05:32;;;;;;;11.00;7.67;;;19.00;99.90;;;;;;4975791;28;20183;-82
2022/07/30 01:07:57;;;;;;;10.07;7.80;;;19.00;99.90;;;;;;4968959;28;20188;-82
2022/07/30 01:10:23;;;;;;;8.80;7.87;;;19.00;99.90;;;;;;4989918;28;20450;-82
2022/07/30 01:12:51;;;;;;;9.10;7.63;;;18.90;99.90;;;;;;4982649;28;20566;-82
2022/07/30 01:15:18;;;;;;;11.03;8.43;;;18.90;1.00;;;;;;4976234;28;20963;-82
2022/07/30 01:17:48;;;;;;;17.17;8.77;;;18.80;1.00;;;;;;4982918;28;20438;-82
2022/07/30 01:20:17;;;;;;;14.90;8.87;;;18.80;1.00;;;;;;4976408;28;20553;-82
2022/07/30 01:22:49;;;;;;;10.20;8.63;;;18.80;1.00;;;;;;4986673;28;20473;-81
2022/07/30 01:25:32;;;;;;;10.63;8.27;;;18.80;1.00;;;;;;4988149;28;20452;-82
2022/07/30 01:28:11;;;;;;;9.53;8.43;;;18.80;1.00;;;;;;4968794;28;20473;-82
2022/07/30 01:30:41;;;;;;;9.50;8.23;;;18.70;1.00;;;;;;4974700;28;20459;-82
2022/07/30 01:33:10;;;;;;;11.20;8.80;;;18.70;1.00;;;;;;4970942;28;20529;-82
2022/07/30 01:35:38;;;;;;;13.23;8.43;;;18.70;1.00;;;;;;4990014;28;20516;-82
2022/07/30 01:38:05;;;;;;;8.90;7.77;;;18.70;1.00;;;;;;4989064;28;20458;-82
2022/07/30 01:40:32;;;;;;;9.63;7.80;;;18.60;1.00;;;;;;4990244;28;20552;-82
2022/07/30 01:43:00;;;;;;;8.80;7.97;;;18.60;1.00;;;;;;4983123;28;20454;-82
2022/07/30 01:45:28;;;;;;;11.83;8.63;;;18.60;1.00;;;;;;4975118;28;20449;-81
2022/07/30 01:47:56;;;;;;;13.10;8.13;;;18.50;1.00;;;;;;4969996;28;20453;-82
2022/07/30 01:50:23;;;;;;;12.40;7.80;;;18.50;1.00;;;;;;4975375;28;20997;-82
2022/07/30 01:52:51;;;;;;;9.53;8.43;;;18.50;1.00;;;;;;4985653;28;20571;-82
2022/07/30 01:55:40;;;;;;;9.83;8.80;;;18.50;1.00;;;;;;4990107;28;20806;-82
2022/07/30 01:58:06;;;;;;;15.30;9.37;;;18.40;1.00;;;;;;4968551;28;20441;-82
2022/07/30 02:00:36;;;;;;;11.70;8.80;;;18.40;1.00;;;;;;4992341;28;20600;-82
2022/07/30 02:03:04;;;;;;;9.10;8.00;;;18.40;1.00;;;;;;4987364;28;20441;-82
2022/07/30 02:05:32;;;;;;;12.73;9.33;;;18.40;1.00;;;;;;4988173;28;20445;-82
2022/07/30 02:08:11;;;;;;;13.30;9.40;;;18.40;3.00;;;;;;4985772;28;20457;-82
2022/07/30 02:10:44;;;;;;;9.43;8.33;;;18.40;36.20;;;;;;4975529;28;20459;-82
2022/07/30 02:13:12;;;;;;;11.57;9.47;;;18.40;40.70;;;;;;4990613;28;20947;-82
2022/07/30 02:15:53;;;;;;;10.70;9.60;;;18.40;50.90;;;;;;4994015;28;20436;-82
2022/07/30 02:18:31;;;;;;;12.00;9.20;;;18.40;91.20;;;;;;4994046;28;20434;-82
2022/07/30 02:21:04;;;;;;;12.47;8.80;;;18.30;99.90;;;;;;4974960;28;20439;-82
2022/07/30 02:23:37;;;;;;;11.07;8.80;;;18.30;99.90;;;;;;4991744;28;20869;-82
2022/07/30 02:26:04;;;;;;;12.13;9.03;;;18.20;99.90;;;;;;4975737;28;20452;-82
2022/07/30 02:28:33;;;;;;;14.50;8.83;;;18.10;99.90;;;;;;4990603;28;20432;-82
2022/07/30 02:31:00;;;;;;;18.40;9.40;;;18.10;99.90;;;;;;4976184;28;20466;-82
2022/07/30 02:33:29;;;;;;;13.93;10.30;;;18.10;99.90;;;;;;4995033;28;20440;-82
2022/07/30 02:35:57;;;;;;;13.07;9.90;;;18.00;99.90;;;;;;4975087;28;20471;-82
2022/07/30 02:38:26;;;;;;;13.13;10.10;;;18.00;99.90;;;;;;4988418;28;20446;-82
2022/07/30 02:40:53;;;;;;;11.33;10.10;;;17.90;1.00;;;;;;4976327;28;20486;-82
2022/07/30 02:43:23;;;;;;;12.47;10.23;;;17.80;1.00;;;;;;4986023;28;20433;-82
2022/07/30 02:45:49;;;;;;;12.00;10.00;;;17.80;1.00;;;;;;4974255;28;20435;-82
2022/07/30 02:48:17;;;;;;;15.80;10.30;;;17.70;1.00;;;;;;4990286;28;20810;-83
2022/07/30 02:50:43;;;;;;;12.73;10.87;;;17.70;1.00;;;;;;4993508;28;20283;-82
2022/07/30 02:53:11;;;;;;;11.27;10.13;;;17.70;1.00;;;;;;4994452;28;20808;-82
2022/07/30 02:55:38;;;;;;;16.30;10.77;;;17.60;36.20;;;;;;4993435;28;21151;-82
2022/07/30 02:58:06;;;;;;;12.27;11.13;;;17.60;99.90;;;;;;4974427;28;20445;-82
2022/07/30 03:00:33;;;;;;;14.60;11.00;;;17.60;99.90;;;;;;4993038;28;20947;-82
2022/07/30 03:03:01;;;;;;;14.60;10.40;;;17.50;99.90;;;;;;4968899;28;20451;-82
2022/07/30 03:05:27;;;;;;;13.03;11.37;;;17.50;99.90;;;;;;4995078;28;20943;-82
2022/07/30 03:07:55;;;;;;;12.17;10.67;;;17.50;99.90;;;;;;4988909;28;20508;-82
2022/07/30 03:10:21;;;;;;;13.87;10.53;;;17.50;99.90;;;;;;4971718;28;20463;-82
2022/07/30 03:12:49;;;;;;;14.13;10.50;;;17.40;99.90;;;;;;4975690;28;20546;-82
2022/07/30 03:15:15;;;;;;;12.20;10.27;;;17.40;1.00;;;;;;4975097;28;20530;-82
2022/07/30 03:17:47;;;;;;;13.10;10.87;;;17.40;1.00;;;;;;4991129;28;20478;-82
2022/07/30 03:20:17;;;;;;;16.20;11.30;;;17.30;1.00;;;;;;4992964;28;21028;-82
2022/07/30 03:22:46;;;;;;;27.23;11.40;;;17.30;1.00;;;;;;4984844;28;20448;-82
2022/07/30 03:25:15;;;;;;;13.67;10.20;;;17.30;72.10;;;;;;4978344;28;20445;-82
2022/07/30 03:27:42;;;;;;;14.00;10.27;;;17.30;99.90;;;;;;4972149;28;20462;-82
2022/07/30 03:30:09;;;;;;;22.07;10.37;;;17.30;99.90;;;;;;4970947;28;20482;-82
2022/07/30 03:32:36;;;;;;;11.80;10.70;;;17.30;99.90;;;;;;4989078;28;20471;-82
2022/07/30 03:35:02;;;;;;;12.73;11.33;;;17.30;99.90;;;;;;4987465;28;20435;-82
2022/07/30 03:37:30;;;;;;;13.30;12.00;;;17.20;99.90;;;;;;4974692;28;20436;-82
2022/07/30 03:39:56;;;;;;;16.17;10.40;;;17.20;99.90;;;;;;4993333;28;20473;-82
2022/07/30 03:42:23;;;;;;;18.53;12.00;;;17.20;1.00;;;;;;4970062;28;20443;-82
2022/07/30 03:44:49;;;;;;;13.43;10.40;;;17.10;1.00;;;;;;4976019;28;20454;-82
2022/07/30 03:47:16;;;;;;;14.80;11.10;;;17.10;99.90;;;;;;4987308;28;20443;-82
2022/07/30 03:49:42;;;;;;;14.27;12.07;;;17.10;99.90;;;;;;4975552;28;20498;-82
2022/07/30 03:52:08;;;;;;;14.90;12.30;;;17.00;1.00;;;;;;4972883;28;20475;-82
2022/07/30 03:54:34;;;;;;;13.87;11.20;;;17.00;56.00;;;;;;4995463;28;20185;-82
2022/07/30 03:57:01;;;;;;;14.40;11.27;;;17.00;99.90;;;;;;4987555;28;20809;-82
2022/07/30 03:59:28;;;;;;;14.20;11.77;;;17.00;1.00;;;;;;4973063;28;20461;-82
2022/07/30 04:01:53;;;;;;;15.00;12.20;;;17.10;5.20;;;;;;4972777;28;20444;-82
2022/07/30 04:04:19;;;;;;;15.53;13.20;;;17.10;1.00;;;;;;4972019;28;20526;-82
2022/07/30 04:06:45;;;;;;;19.63;13.93;;;17.10;1.00;;;;;;4991186;28;20214;-82
2022/07/30 04:09:11;;;;;;;18.17;13.40;;;17.10;99.90;;;;;;4970899;28;20213;-82
2022/07/30 04:11:38;;;;;;;16.23;13.67;;;17.20;99.90;;;;;;4987315;28;20212;-82
2022/07/30 04:14:03;;;;;;;19.93;13.10;;;17.30;99.90;;;;;;4988274;28;20503;-82
2022/07/30 04:16:38;;;;;;;23.83;13.57;;;17.30;99.90;;;;;;4970277;28;20472;-82
2022/07/30 04:19:09;;;;;;;28.23;14.47;;;17.30;1.00;;;;;;4992513;28;20203;-82
2022/07/30 04:21:37;;;;;;;20.97;15.40;;;17.30;1.00;;;;;;4972988;28;20459;-82
2022/07/30 04:24:04;;;;;;;19.47;14.13;;;17.40;99.90;;;;;;4985991;28;20444;-82
2022/07/30 04:26:31;;;;;;;31.83;15.30;;;17.40;99.90;;;;;;4991672;28;20473;-82
2022/07/30 04:28:58;;;;;;;27.30;17.30;;;17.40;99.90;;;;;;4985503;28;20465;-82
2022/07/30 04:31:25;;;;;;;39.20;17.27;;;17.50;99.90;;;;;;4974072;28;20481;-82
2022/07/30 04:33:50;;;;;;;30.33;17.10;;;17.50;99.90;;;;;;4987530;28;20515;-82
2022/07/30 04:36:16;;;;;;;30.57;17.23;;;17.60;99.90;;;;;;4993523;28;20520;-82
2022/07/30 04:38:41;;;;;;;32.97;18.23;;;17.70;99.90;;;;;;4993168;28;20593;-82
2022/07/30 04:41:07;;;;;;;28.70;17.43;;;17.70;99.90;;;;;;4987997;28;20198;-82
2022/07/30 04:43:33;;;;;;;31.63;17.90;;;17.80;1.00;;;;;;4989872;28;20187;-82
2022/07/30 04:45:58;;;;;;;34.20;19.37;;;17.80;1.00;;;;;;4972108;28;20189;-83
2022/07/30 04:48:25;;;;;;;50.00;22.40;;;17.90;1.00;;;;;;4969409;28;20723;-81
2022/07/30 04:50:53;;;;;;;37.57;20.53;;;17.90;1.00;;;;;;4968191;28;20260;-82
2022/07/30 04:53:20;;;;;;;48.30;21.17;;;18.00;1.00;;;;;;4986884;28;20925;-82
2022/07/30 04:55:48;;;;;;;34.90;22.13;;;18.00;1.00;;;;;;4966540;28;20444;-83
2022/07/30 04:58:17;;;;;;;36.33;21.70;;;18.00;1.00;;;;;;4996045;28;20450;-83
2022/07/30 05:00:44;;;;;;;41.50;23.03;;;18.10;1.00;;;;;;4973455;28;20490;-83
2022/07/30 05:03:13;;;;;;;42.33;23.07;;;18.10;1.00;;;;;;4973336;28;20439;-83
2022/07/30 05:05:40;;;;;;;44.30;23.50;;;18.10;1.00;;;;;;4972928;28;20437;-83
2022/07/30 05:08:06;;;;;;;37.83;22.60;;;18.20;1.00;;;;;;4979148;28;20624;-83
2022/07/30 05:10:31;;;;;;;43.90;24.77;;;18.20;1.00;;;;;;4992684;28;20464;-83
2022/07/30 05:12:57;;;;;;;50.57;22.40;;;18.20;1.00;;;;;;4994593;28;20472;-83
2022/07/30 05:15:23;;;;;;;42.37;23.93;;;18.20;1.00;;;;;;4992698;28;20586;-82
2022/07/30 05:17:49;;;;;;;39.43;23.67;;;18.30;1.00;;;;;;4991273;28;20182;-83
2022/07/30 05:20:14;;;;;;;44.47;24.80;;;18.30;25.70;;;;;;4971840;28;20267;-83
2022/07/30 05:22:40;;;;;;;41.27;24.40;;;18.30;1.00;;;;;;4991290;28;20441;-84
2022/07/30 05:25:06;;;;;;;42.73;25.13;;;18.30;17.80;;;;;;4993456;28;20236;-83
2022/07/30 05:27:32;;;;;;;39.23;25.00;;;18.40;11.50;;;;;;4978823;28;20546;-83
2022/07/30 05:29:57;;;;;;;43.87;26.70;;;18.40;4.80;;;;;;4992142;28;20457;-83
2022/07/30 05:32:23;;;;;;;40.13;27.50;;;18.30;11.40;;;;;;4991629;28;22151;-83
2022/07/30 05:34:48;;;;;;;46.53;27.60;;;18.30;3.60;;;;;;4988270;28;20183;-83
2022/07/30 05:37:14;;;;;;;50.00;27.73;;;18.30;3.20;;;;;;4976438;28;20285;-83
2022/07/30 05:39:39;;;;;;;47.87;29.03;;;18.30;37.20;;;;;;4976117;28;20305;-83
2022/07/30 05:42:05;;;;;;;43.80;27.70;;;18.30;38.00;;;;;;4991758;28;20198;-83
2022/07/30 05:44:31;;;;;;;44.10;28.27;;;18.40;51.00;;;;;;4971528;28;20203;-83
2022/07/30 05:46:56;;;;;;;44.77;27.43;;;18.40;67.30;;;;;;4977991;28;20198;-84
2022/07/30 05:49:22;;;;;;;50.73;26.53;;;18.50;85.70;;;;;;4968938;28;20304;-83
2022/07/30 05:51:48;;;;;;;43.27;26.07;;;18.50;29.70;;;;;;4981808;28;20714;-83
2022/07/30 05:54:13;;;;;;;44.77;25.93;;;18.70;1.00;;;;;;4990387;28;20439;-83
2022/07/30 05:56:40;;;;;;;36.63;24.37;;;18.80;1.00;;;;;;4990089;28;20187;-83
2022/07/30 05:59:05;;;;;;;38.07;23.03;;;18.80;1.00;;;;;;4988590;28;20257;-82
2022/07/30 06:01:31;;;;;;;37.77;22.27;;;18.90;1.00;;;;;;4976443;28;22077;-83
2022/07/30 06:03:57;;;;;;;30.57;22.57;;;19.00;99.90;;;;;;4987635;28;20192;-83
2022/07/30 06:06:22;;;;;;;30.03;22.20;;;19.20;77.20;;;;;;4977744;28;20247;-83
2022/07/30 06:08:49;;;;;;;37.83;22.53;;;19.30;99.90;;;;;;4977489;28;20617;-83
2022/07/30 06:11:14;;;;;;;37.50;23.13;;;19.50;1.00;;;;;;4988305;28;20237;-83
2022/07/30 06:13:40;;;;;;;28.60;21.40;;;19.50;99.90;;;;;;4994776;28;20468;-83
2022/07/30 06:16:05;;;;;;;30.27;20.43;;;19.60;99.90;;;;;;4990995;28;20192;-83
2022/07/30 06:18:31;;;;;;;40.90;20.80;;;19.70;1.00;;;;;;4991247;28;20273;-83
2022/07/30 06:20:57;;;;;;;35.63;20.30;;;19.70;1.00;;;;;;4992228;28;20591;-83
2022/07/30 06:23:22;;;;;;;28.30;20.63;;;19.70;1.00;;;;;;4994270;28;20186;-83
2022/07/30 06:25:49;;;;;;;25.77;21.23;;;19.70;99.90;;;;;;4969300;28;20706;-83
2022/07/30 06:28:15;;;;;;;33.87;22.27;;;19.70;42.20;;;;;;4989770;28;20434;-83
2022/07/30 06:30:41;;;;;;;30.73;21.23;;;19.80;1.00;;;;;;4977058;28;20461;-83
2022/07/30 06:33:06;;;;;;;27.40;21.93;;;20.10;99.90;;;;;;4993114;28;20465;-83
2022/07/30 06:35:33;;;;;;;23.63;19.50;;;20.10;1.00;;;;;;4991244;28;20597;-83
2022/07/30 06:37:59;;;;;;;23.97;18.80;;;20.10;1.00;;;;;;4989775;28;20238;-83
2022/07/30 06:40:24;;;;;;;26.73;21.17;;;20.50;28.10;;;;;;5023182;23;20517;-83
2022/07/30 06:42:50;;;;;;;26.93;20.90;;;20.70;1.00;;;;;;4999967;28;21022;-83
2022/07/30 06:45:16;;;;;;;20.87;17.20;;;20.90;99.90;;;;;;5011584;28;20194;-84
2022/07/30 06:47:41;;;;;;;23.77;17.00;;;23.00;1.00;;;;;;5010757;28;20200;-85
2022/07/30 06:50:08;;;;;;;18.93;16.70;;;23.30;1.00;;;;;;4993701;28;20996;-86
2022/07/30 06:52:33;;;;;;;19.77;15.53;;;28.40;99.90;;;;;;5006559;28;20211;-86
2022/07/30 06:54:59;;;;;;;19.40;16.50;;;28.40;99.90;;;;;;5006912;28;20557;-85
2022/07/30 06:57:24;;;;;;;19.80;17.17;;;27.40;99.90;;;;;;5007766;28;20232;-84
2022/07/30 06:59:50;;;;;;;21.70;17.00;;;26.60;99.90;;;;;;5013777;28;20934;-85
2022/07/30 07:02:15;;;;;;;23.73;17.33;;;25.80;99.90;;;;;;4990020;28;21189;-83
2022/07/30 07:04:41;;;;;;;20.60;17.07;;;25.10;99.90;;;;;;5012755;28;20190;-84
2022/07/30 07:07:06;;;;;;;18.33;15.90;;;24.50;99.90;;;;;;5008549;28;20275;-86
2022/07/30 07:09:32;;;;;;;20.20;15.87;;;24.20;99.90;;;;;;4993437;28;20215;-87
2022/07/30 07:11:58;;;;;;;24.20;18.77;;;24.10;99.90;;;;;;5010490;28;20203;-85
2022/07/30 07:14:23;;;;;;;24.90;17.87;;;23.70;99.90;;;;;;5010832;28;20195;-85
2022/07/30 07:16:49;;;;;;;23.40;17.63;;;23.60;99.90;;;;;;5011423;28;20618;-85
2022/07/30 07:19:15;;;;;;;24.10;18.20;;;23.70;99.90;;;;;;4992001;28;20185;-84
2022/07/30 07:21:40;;;;;;;27.37;18.97;;;23.60;99.90;;;;;;5012218;28;20263;-85
2022/07/30 07:24:07;;;;;;;20.30;17.50;;;23.40;99.90;;;;;;5014087;28;20360;-85
2022/07/30 07:26:33;;;;;;;22.33;16.93;;;23.40;99.90;;;;;;5013114;28;20907;-85
2022/07/30 07:28:59;;;;;;;23.20;17.33;;;23.70;99.90;;;;;;5010869;28;20437;-85
2022/07/30 07:31:25;;;;;;;20.70;16.93;;;23.70;99.90;;;;;;5013301;28;20266;-85
2022/07/30 07:33:53;;;;;;;25.27;14.77;;;23.70;99.90;;;;;;5013681;28;20197;-86
2022/07/30 07:36:19;;;;;;;15.57;13.90;;;25.10;99.90;;;;;;4993878;28;20477;-86
2022/07/30 07:38:45;;;;;;;18.60;14.20;;;31.00;99.90;;;;;;5012312;28;20479;-86
2022/07/30 07:41:10;;;;;;;18.20;13.13;;;32.30;99.90;;;;;;5008470;28;20469;-84
2022/07/30 07:43:36;;;;;;;15.73;13.57;;;30.90;99.90;;;;;;4993767;28;20535;-85
2022/07/30 07:46:01;;;;;;;19.23;14.90;;;29.60;99.90;;;;;;4996506;28;21763;-86
2022/07/30 07:48:27;;;;;;;17.30;14.87;;;28.50;99.90;;;;;;5010600;28;20201;-87
2022/07/30 07:50:52;;;;;;;23.90;14.73;;;29.40;99.90;;;;;;5015172;28;20291;-86
2022/07/30 07:53:18;;;;;;;17.03;13.73;;;31.30;99.90;;;;;;5012114;28;20313;-86
2022/07/30 07:55:44;;;;;;;16.80;13.87;;;30.50;99.90;;;;;;5007297;28;20183;-87
2022/07/30 07:58:12;;;;;;;17.43;14.10;;;30.20;99.90;;;;;;5005032;28;20193;-87
2022/07/30 08:00:40;;;;;;;17.37;13.40;;;30.50;99.90;;;;;;5010856;28;20668;-84
2022/07/30 08:03:06;;;;;;;15.57;11.73;;;35.50;99.90;;;;;;5010321;28;20468;-84
2022/07/30 08:05:31;;;;;;;15.77;12.17;;;39.00;99.90;;;;;;5007415;28;21008;-86
2022/07/30 08:07:57;;;;;;;17.67;13.10;;;37.20;99.90;;;;;;5010532;28;20698;-88
2022/07/30 08:10:25;;;;;;;16.47;11.70;;;34.90;99.90;;;;;;4997193;28;20693;-85
2022/07/30 08:12:50;;;;;;;16.03;11.27;;;33.70;99.90;;;;;;5013230;28;20469;-86
2022/07/30 08:15:16;;;;;;;13.73;12.37;;;36.60;99.90;;;;;;5011092;28;20460;-89
2022/07/30 08:17:43;;;;;;;13.13;11.83;;;37.80;99.90;;;;;;5008034;28;20210;-82
2022/07/30 08:20:10;;;;;;;12.70;11.40;;;40.40;99.90;;;;;;5006295;28;20213;-86
2022/07/30 08:22:36;;;;;;;11.80;10.70;;;43.80;99.90;;;;;;4994940;28;20445;-85
2022/07/30 08:25:03;;;;;;;13.70;9.93;;;46.00;99.10;;;;;;4993094;28;20542;-84
2022/07/30 08:27:29;;;;;;;12.30;11.00;;;48.20;95.80;;;;;;5006657;28;20445;-85
2022/07/30 08:29:55;;;;;;;11.60;9.77;;;48.10;88.40;;;;;;5009343;28;20568;-84
2022/07/30 08:32:20;;;;;;;13.13;10.57;;;47.50;75.70;;;;;;4991111;28;20225;-85
2022/07/30 08:34:46;;;;;;;9.80;8.90;;;47.10;64.10;;;;;;4992226;28;20179;-83
2022/07/30 08:37:12;;;;;;;13.77;9.13;;;47.30;57.20;;;;;;5009138;28;20186;-83
2022/07/30 08:39:38;;;;;;;13.37;10.27;;;46.50;50.50;;;;;;5005722;28;20204;-82
2022/07/30 08:42:04;;;;;;;11.30;9.40;;;43.40;41.10;;;;;;5010158;28;20457;-84
2022/07/30 08:44:32;;;;;;;10.30;8.47;;;44.60;44.60;;;;;;5008663;28;20183;-84
2022/07/30 08:46:58;;;;;;;8.50;6.53;;;46.70;45.30;;;;;;5008368;28;20245;-84
2022/07/30 08:49:25;;;;;;;8.97;6.10;;;48.10;44.00;;;;;;5007920;28;20861;-83
2022/07/30 08:51:55;;;;;;;11.00;5.80;;;49.50;42.40;;;;;;5006989;28;20437;-87
2022/07/30 08:54:21;;;;;;;7.80;6.07;;;50.30;38.40;;;;;;4990181;28;20425;-84
2022/07/30 08:56:48;;;;;;;8.40;6.50;;;49.40;31.90;;;;;;5008361;28;20434;-84
2022/07/30 08:59:16;;;;;;;6.90;5.70;;;50.00;31.00;;;;;;5006462;28;20441;-84
2022/07/30 09:01:45;;;;;;;6.10;5.50;;;48.90;26.20;;;;;;5009120;28;20477;-83
2022/07/30 09:04:10;;;;;;;9.73;6.00;;;45.30;19.40;;;;;;5006578;28;20778;-85
2022/07/30 09:06:36;;;;;;;7.27;5.70;;;45.90;22.00;;;;;;5008235;28;20445;-85
2022/07/30 09:09:02;;;;;;;7.50;5.73;;;47.70;24.20;;;;;;5008111;28;20183;-85
2022/07/30 09:11:42;;;;;;;5.97;5.17;;;48.50;22.90;;;;;;5009112;28;20285;-86
2022/07/30 09:14:09;;;;;;;6.60;5.13;;;49.30;23.30;;;;;;5009492;28;20444;-85
2022/07/30 09:16:35;;;;;;;6.53;4.87;;;50.10;22.40;;;;;;4990879;28;20429;-85
2022/07/30 09:19:16;;;;;;;5.80;4.17;;;50.60;20.70;;;;;;5007621;28;20468;-85
2022/07/30 09:21:53;;;;;;;7.60;3.87;;;51.40;20.00;;;;;;5007242;28;20468;-85
2022/07/30 09:24:18;;;;;;;9.13;4.90;;;51.60;18.90;;;;;;5007157;28;20991;-86
2022/07/30 09:27:03;;;;;;;5.40;4.90;;;52.00;17.30;;;;;;5006466;28;20429;-84
2022/07/30 09:29:29;;;;;;;9.27;5.43;;;51.70;15.40;;;;;;5002454;28;20205;-85
2022/07/30 09:31:56;;;;;;;5.30;4.80;;;51.90;14.40;;;;;;5007746;28;20459;-86
2022/07/30 09:34:30;;;;;;;3.80;3.03;;;51.20;12.50;;;;;;5005107;28;20176;-86
2022/07/30 09:36:57;;;;;;;6.10;4.00;;;49.00;7.60;;;;;;5009275;28;20444;-86
2022/07/30 09:39:34;;;;;;;8.20;4.93;;;49.30;8.40;;;;;;4991776;28;20503;-86
2022/07/30 09:42:02;;;;;;;4.73;3.53;;;49.50;8.00;;;;;;5008794;28;20464;-86
2022/07/30 09:44:28;;;;;;;6.90;4.40;;;49.90;8.20;;;;;;5006874;28;20500;-86
2022/07/30 09:46:54;;;;;;;5.20;4.00;;;49.90;7.80;;;;;;5006121;28;20487;-86
2022/07/30 09:49:23;;;;;;;8.27;4.57;;;50.00;7.10;;;;;;5008523;28;20520;-86
2022/07/30 09:51:50;;;;;;;7.50;3.40;;;49.60;6.10;;;;;;4994017;28;20508;-86
2022/07/30 09:54:16;;;;;;;5.70;3.20;;;49.10;4.50;;;;;;5007846;28;20432;-86
2022/07/30 09:56:47;;;;;;;4.20;3.20;;;49.20;4.50;;;;;;4991368;28;20448;-85
2022/07/30 09:59:30;;;;;;;8.43;3.23;;;49.20;4.40;;;;;;5008472;28;20197;-85
2022/07/30 10:01:56;;;;;;;10.73;3.33;;;49.00;3.10;;;;;;4993719;28;20464;-86
2022/07/30 10:04:31;;;;;;;7.20;3.87;;;48.90;2.70;;;;;;5007443;28;20443;-85
2022/07/30 10:07:00;;;;;;;5.43;2.60;;;48.50;1.80;;;;;;5005941;28;20447;-85
2022/07/30 10:09:28;;;;;;;5.47;3.10;;;48.40;1.60;;;;;;4997808;28;20465;-85
2022/07/30 10:11:55;;;;;;;3.47;3.17;;;48.40;11.20;;;;;;5007464;28;20449;-86
2022/07/30 10:14:23;;;;;;;7.10;3.03;;;48.00;1.00;;;;;;5006825;28;20448;-87
2022/07/30 10:16:50;;;;;;;4.67;3.00;;;47.70;1.00;;;;;;4999544;28;20442;-86
2022/07/30 10:19:17;;;;;;;3.57;3.07;;;47.50;1.00;;;;;;5003005;28;20856;-86
2022/07/30 10:21:43;;;;;;;8.93;3.57;;;47.40;1.00;;;;;;4987943;28;20585;-86
2022/07/30 10:24:09;;;;;;;3.63;3.33;;;47.20;1.00;;;;;;5003927;28;20838;-87
2022/07/30 10:26:35;;;;;;;3.40;3.07;;;47.10;1.00;;;;;;5005392;28;20442;-87
2022/07/30 10:29:01;;;;;;;4.60;3.20;;;46.80;1.00;;;;;;5006633;28;20430;-86
2022/07/30 10:31:26;;;;;;;4.33;3.00;;;46.20;1.00;;;;;;4988677;28;20691;-86
2022/07/30 10:33:52;;;;;;;4.03;3.40;;;46.10;1.00;;;;;;4994427;28;20186;-86
2022/07/30 10:36:19;;;;;;;4.10;3.70;;;45.90;1.00;;;;;;5011356;28;20321;-85
2022/07/30 10:38:46;;;;;;;6.27;4.07;;;45.90;1.00;;;;;;5009026;28;20184;-85
2022/07/30 10:41:26;;;;;;;5.60;2.90;;;46.00;1.00;;;;;;5004556;28;20560;-86
2022/07/30 10:44:11;;;;;;;5.70;3.10;;;45.90;1.00;;;;;;5005455;28;20434;-86
2022/07/30 10:46:42;;;;;;;3.57;3.20;;;45.70;1.00;;;;;;5010016;28;20449;-85
2022/07/30 10:49:13;;;;;;;4.03;2.70;;;45.40;1.00;;;;;;5011621;28;20440;-84
2022/07/30 10:51:44;;;;;;;5.97;2.63;;;45.30;1.00;;;;;;4996662;28;20454;-85
2022/07/30 10:54:31;;;;;;;3.03;2.60;;;45.50;1.00;;;;;;5007343;28;20444;-85
2022/07/30 10:57:10;;;;;;;4.80;2.30;;;45.50;1.00;;;;;;5004801;28;20463;-85
2022/07/30 10:59:51;;;;;;;6.70;2.97;;;45.70;1.00;;;;;;5011587;28;20928;-85
2022/07/30 11:02:18;;;;;;;6.80;2.47;;;45.60;1.00;;;;;;5004770;28;21442;-84
2022/07/30 11:04:44;;;;;;;3.17;2.30;;;45.60;1.00;;;;;;5006752;28;20429;-85
2022/07/30 11:07:26;;;;;;;2.40;2.20;;;45.70;1.00;;;;;;5001826;28;20591;-84
2022/07/30 11:09:54;;;;;;;4.07;2.83;;;45.60;1.00;;;;;;5008338;28;20462;-84
2022/07/30 11:12:41;;;;;;;4.90;3.03;;;45.30;1.00;;;;;;4999891;28;20438;-85
2022/07/30 11:15:08;;;;;;;3.97;2.60;;;45.30;1.00;;;;;;5010123;28;20437;-85
2022/07/30 11:18:07;;;;;;;2.93;2.63;;;44.50;1.00;;;;;;5008762;28;20473;-84
2022/07/30 11:20:34;;;;;;;3.90;3.00;;;43.30;1.00;;;;;;5006612;28;20976;-85
2022/07/30 11:23:17;;;;;;;9.43;3.00;;;43.00;1.00;;;;;;5009714;28;20473;-85
2022/07/30 11:25:44;;;;;;;4.80;3.00;;;42.60;1.00;;;;;;5007730;28;20536;-84
2022/07/30 11:28:33;;;;;;;6.50;3.10;;;42.30;1.00;;;;;;4992586;28;20438;-85
2022/07/30 11:30:59;;;;;;;4.90;2.70;;;42.80;1.00;;;;;;4988537;28;20446;-85
2022/07/30 11:33:24;;;;;;;4.30;3.20;;;43.10;1.00;;;;;;5005101;28;20414;-86
2022/07/30 11:36:10;;;;;;;3.57;2.30;;;43.20;1.00;;;;;;5004881;28;20446;-86
2022/07/30 11:38:55;;;;;;;6.57;2.70;;;43.10;1.00;;;;;;5012641;28;20198;-85
2022/07/30 11:41:21;;;;;;;5.33;2.40;;;42.90;1.00;;;;;;5008971;28;20469;-85
2022/07/30 11:43:47;;;;;;;2.33;1.67;;;42.60;1.00;;;;;;5006571;28;20805;-88
2022/07/30 11:46:22;;;;;;;3.13;1.63;;;42.10;1.00;;;;;;5006542;28;20187;-88
2022/07/30 11:49:00;;;;;;;5.93;3.50;;;42.30;1.00;;;;;;5003380;28;20187;-88
2022/07/30 11:51:26;;;;;;;3.73;1.90;;;42.20;1.00;;;;;;5005592;28;20970;-85
2022/07/30 11:54:05;;;;;;;4.50;2.03;;;42.30;1.00;;;;;;5008466;28;20483;-86
2022/07/30 11:56:31;;;;;;;5.50;1.90;;;42.90;1.00;;;;;;5009471;28;20436;-85
2022/07/30 11:59:05;;;;;;;3.47;2.10;;;42.90;1.00;;;;;;5010696;28;20433;-85
2022/07/30 12:01:32;;;;;;;3.47;1.70;;;42.20;5.80;;;;;;5007486;28;20616;-84
2022/07/30 12:04:05;;;;;;;5.67;1.70;;;41.20;1.00;;;;;;5009958;28;20811;-85
2022/07/30 12:06:31;;;;;;;3.90;2.10;;;40.50;1.00;;;;;;5008505;28;20512;-85
2022/07/30 12:08:57;;;;;;;3.67;1.70;;;40.60;1.00;;;;;;5011572;28;20442;-85
2022/07/30 12:11:24;;;;;;;3.10;1.40;;;40.90;1.00;;;;;;4993011;28;20457;-85
2022/07/30 12:14:01;;;;;;;4.37;1.63;;;41.50;1.00;;;;;;5011811;28;20868;-86
2022/07/30 12:16:29;;;;;;;3.10;1.50;;;41.70;1.00;;;;;;4988248;28;20866;-86
2022/07/30 12:18:59;;;;;;;1.83;1.60;;;41.80;1.00;;;;;;4992008;28;20969;-85
2022/07/30 12:21:25;;;;;;;2.80;1.80;;;41.70;1.00;;;;;;5010922;28;20884;-84
2022/07/30 12:23:59;;;;;;;1.90;1.70;;;41.80;1.00;;;;;;5001970;28;20442;-84
2022/07/30 12:26:31;;;;;;;2.80;1.73;;;41.70;1.00;;;;;;5009067;28;20182;-87
2022/07/30 12:28:59;;;;;;;5.07;1.63;;;41.70;1.00;;;;;;4993306;28;20473;-87
2022/07/30 12:31:26;;;;;;;3.97;1.77;;;41.80;1.00;;;;;;4992034;28;20469;-88
2022/07/30 12:33:52;;;;;;;2.50;1.50;;;41.90;1.00;;;;;;5007448;28;20425;-86
2022/07/30 12:36:29;;;;;;;2.33;1.30;;;42.20;1.00;;;;;;5006380;28;20957;-88
2022/07/30 12:38:56;;;;;;;2.73;1.43;;;42.20;1.00;;;;;;5009326;28;20433;-89
2022/07/30 12:43:55;;;;;;;2.00;1.13;;;41.40;1.00;;;;;;4983995;28;20465;-85
2022/07/30 12:46:25;;;;;;;2.67;1.70;;;41.20;1.00;;;;;;4987810;28;20507;-84
2022/07/30 12:48:52;;;;;;;1.70;1.40;;;40.90;1.00;;;;;;4973116;28;20442;-85